createdAt,value
2018-05-27T00:01:33.634Z,8.93
2018-05-27T00:04:03.389Z,8.83
2018-05-27T00:06:32.966Z,8.60
2018-05-27T00:09:02.689Z,7.60
2018-05-27T00:11:32.647Z,8.77
2018-05-27T00:14:03.339Z,8.03
2018-05-27T00:16:35.800Z,8.70
2018-05-27T00:19:05.829Z,7.77
2018-05-27T00:21:35.722Z,8.33
2018-05-27T00:24:05.853Z,7.93
2018-05-27T00:26:35.343Z,7.87
2018-05-27T00:29:05.697Z,8.47
2018-05-27T00:31:35.249Z,8.63
2018-05-27T00:34:04.653Z,8.50
2018-05-27T00:36:34.834Z,8.60
2018-05-27T00:39:04.706Z,7.97
2018-05-27T00:41:33.933Z,8.37
2018-05-27T00:46:32.176Z,7.73
2018-05-27T00:49:03.011Z,8.07
2018-05-27T00:51:32.832Z,7.90
2018-05-27T00:54:03.610Z,13.30
2018-05-27T00:56:33.300Z,7.73
2018-05-27T00:59:02.931Z,7.27
2018-05-27T01:01:32.664Z,7.80
2018-05-27T01:04:02.484Z,7.77
2018-05-27T01:06:31.999Z,7.93
2018-05-27T01:09:03.249Z,8.05
2018-05-27T01:11:33.357Z,8.07
2018-05-27T01:14:03.500Z,7.60
2018-05-27T01:16:33.929Z,7.87
2018-05-27T01:21:33.646Z,7.90
2018-05-27T01:24:04.317Z,7.70
2018-05-27T01:26:33.855Z,8.00
2018-05-27T01:29:11.361Z,7.57
2018-05-27T01:31:40.794Z,8.30
2018-05-27T01:34:12.058Z,7.30
2018-05-27T01:36:42.843Z,8.10
2018-05-27T01:39:16.636Z,7.63
2018-05-27T01:41:46.484Z,7.93
2018-05-27T01:44:15.772Z,7.80
2018-05-27T01:46:45.279Z,7.57
2018-05-27T01:49:14.733Z,7.87
2018-05-27T01:51:44.505Z,7.63
2018-05-27T01:54:15.465Z,7.97
2018-05-27T01:56:46.203Z,7.83
2018-05-27T01:59:15.621Z,9.07
2018-05-27T02:01:44.971Z,7.80
2018-05-27T02:04:15.288Z,8.00
2018-05-27T02:06:44.810Z,8.50
2018-05-27T02:09:14.440Z,8.30
2018-05-27T02:11:45.357Z,7.57
2018-05-27T02:14:14.832Z,7.80
2018-05-27T02:16:45.505Z,7.00
2018-05-27T02:19:14.773Z,7.63
2018-05-27T02:23:03.321Z,7.87
2018-05-27T02:25:32.693Z,7.40
2018-05-27T02:28:03.933Z,7.87
2018-05-27T02:33:03.390Z,7.77
2018-05-27T02:35:32.722Z,8.47
2018-05-27T02:38:02.755Z,8.17
2018-05-27T02:40:32.011Z,7.20
2018-05-27T02:43:02.987Z,7.45
2018-05-27T02:45:33.287Z,8.20
2018-05-27T02:48:03.275Z,8.30
2018-05-27T02:50:32.980Z,7.17
2018-05-27T02:53:03.262Z,7.50
2018-05-27T02:55:32.772Z,7.50
2018-05-27T02:58:03.404Z,8.20
2018-05-27T03:00:32.978Z,7.97
2018-05-27T03:03:02.845Z,7.20
2018-05-27T03:05:33.185Z,7.13
2018-05-27T03:08:06.723Z,7.70
2018-05-27T03:10:36.244Z,7.07
2018-05-27T03:13:05.677Z,7.77
2018-05-27T03:15:34.953Z,7.07
2018-05-27T03:18:04.699Z,6.57
2018-05-27T03:20:34.377Z,7.03
2018-05-27T03:23:04.189Z,7.00
2018-05-27T03:25:33.813Z,7.70
2018-05-27T03:28:03.620Z,7.70
2018-05-27T03:30:32.975Z,7.33
2018-05-27T03:34:14.715Z,7.63
2018-05-27T03:36:45.330Z,7.43
2018-05-27T03:39:15.256Z,6.93
2018-05-27T03:41:44.759Z,7.23
2018-05-27T03:44:13.972Z,7.70
2018-05-27T03:46:43.446Z,7.65
2018-05-27T03:49:12.775Z,7.10
2018-05-27T03:51:41.847Z,7.07
2018-05-27T03:54:11.312Z,7.33
2018-05-27T03:56:41.335Z,7.40
2018-05-27T03:59:11.496Z,6.90
2018-05-27T04:01:40.776Z,6.77
2018-05-27T04:10:30.440Z,7.30
2018-05-27T04:12:59.873Z,7.27
2018-05-27T04:15:30.392Z,7.17
2018-05-27T04:17:59.889Z,7.33
2018-05-27T04:22:57.767Z,7.07
2018-05-27T04:25:27.870Z,7.53
2018-05-27T04:27:57.225Z,7.00
2018-05-27T04:30:27.400Z,7.67
2018-05-27T04:32:56.736Z,8.00
2018-05-27T04:35:26.825Z,7.40
2018-05-27T04:37:58.014Z,6.47
2018-05-27T04:40:28.202Z,7.55
2018-05-27T04:42:58.536Z,7.00
2018-05-27T04:45:29.524Z,6.97
2018-05-27T04:47:58.838Z,6.80
2018-05-27T04:50:28.267Z,6.77
2018-05-27T04:52:57.752Z,7.33
2018-05-27T04:55:27.203Z,7.23
2018-05-27T04:57:57.376Z,7.23
2018-05-27T05:00:26.808Z,6.63
2018-05-27T05:02:55.955Z,7.23
2018-05-27T05:05:25.328Z,7.50
2018-05-27T05:07:56.461Z,6.50
2018-05-27T05:12:18.779Z,6.93
2018-05-27T05:14:47.972Z,7.10
2018-05-27T05:17:17.293Z,7.20
2018-05-27T05:19:46.659Z,7.47
2018-05-27T05:22:16.353Z,7.27
2018-05-27T05:24:45.852Z,7.43
2018-05-27T05:27:17.715Z,7.03
2018-05-27T05:29:47.731Z,6.70
2018-05-27T05:32:17.818Z,6.83
2018-05-27T05:34:47.668Z,6.63
2018-05-27T05:37:17.693Z,6.77
2018-05-27T05:39:47.261Z,6.80
2018-05-27T05:42:16.703Z,6.70
2018-05-27T05:44:46.705Z,7.20
2018-05-27T05:47:16.798Z,6.70
2018-05-27T05:49:46.269Z,6.27
2018-05-27T05:52:15.529Z,7.03
2018-05-27T05:54:44.780Z,6.57
2018-05-27T05:57:13.992Z,6.53
2018-05-27T05:59:43.977Z,7.00
2018-05-27T06:02:13.446Z,6.30
2018-05-27T06:04:42.856Z,6.47
2018-05-27T06:07:12.712Z,6.93
2018-05-27T06:09:42.292Z,6.83
2018-05-27T06:12:12.661Z,7.23
2018-05-27T06:14:48.188Z,6.70
2018-05-27T06:17:19.670Z,7.57
2018-05-27T06:19:48.868Z,7.40
2018-05-27T06:22:18.999Z,6.90
2018-05-27T06:24:50.394Z,7.43
2018-05-27T06:27:20.304Z,7.23
2018-05-27T06:29:51.282Z,7.40
2018-05-27T06:32:21.710Z,7.33
2018-05-27T06:34:52.665Z,7.57
2018-05-27T06:37:22.983Z,9.07
2018-05-27T06:39:53.846Z,8.45
2018-05-27T06:42:23.422Z,8.53
2018-05-27T06:44:52.765Z,10.70
2018-05-27T06:47:23.521Z,8.93
2018-05-27T06:49:53.714Z,12.10
2018-05-27T06:52:23.206Z,11.87
2018-05-27T06:54:53.660Z,12.27
2018-05-27T06:57:24.993Z,13.07
2018-05-27T06:59:55.457Z,16.20
2018-05-27T07:02:26.379Z,17.40
2018-05-27T07:04:57.319Z,19.43
2018-05-27T07:07:27.960Z,25.97
2018-05-27T07:10:00.257Z,46.30
2018-05-27T07:12:35.375Z,80.40
2018-05-27T07:15:08.290Z,84.50
2018-05-27T07:17:39.786Z,62.53
2018-05-27T07:20:10.300Z,60.85
2018-05-27T07:22:40.238Z,56.17
2018-05-27T07:25:11.274Z,44.70
2018-05-27T07:27:40.630Z,45.43
2018-05-27T07:30:14.797Z,51.67
2018-05-27T07:32:53.274Z,75.23
2018-05-27T07:45:39.563Z,60.95
2018-05-27T07:48:08.838Z,63.60
2018-05-27T07:50:38.478Z,47.63
2018-05-27T07:53:09.223Z,49.20
2018-05-27T07:55:39.526Z,57.97
2018-05-27T07:58:10.817Z,93.40
2018-05-27T08:00:40.178Z,99.60
2018-05-27T08:03:10.377Z,123.30
2018-05-27T08:05:40.404Z,144.70
2018-05-27T08:08:09.701Z,131.63
2018-05-27T08:10:38.856Z,127.40
2018-05-27T08:13:09.261Z,109.00
2018-05-27T08:15:39.887Z,97.23
2018-05-27T08:18:09.462Z,94.20
2018-05-27T08:20:39.492Z,86.77
2018-05-27T08:23:09.295Z,86.60
2018-05-27T08:25:39.287Z,87.60
2018-05-27T08:28:09.252Z,60.17
2018-05-27T08:30:39.343Z,47.37
2018-05-27T08:33:08.760Z,33.27
2018-05-27T08:35:37.893Z,55.03
2018-05-27T08:38:07.211Z,72.20
2018-05-27T08:40:36.854Z,81.53
2018-05-27T08:43:06.413Z,92.83
2018-05-27T08:45:36.802Z,103.57
2018-05-27T08:48:06.566Z,74.57
2018-05-27T08:50:37.071Z,246.70
2018-05-27T08:53:06.765Z,319.85
2018-05-27T08:55:35.858Z,197.97
2018-05-27T08:58:05.233Z,111.40
2018-05-27T09:00:34.681Z,60.20
2018-05-27T09:03:04.710Z,69.17
2018-05-27T09:05:34.224Z,69.03
2018-05-27T09:08:03.618Z,69.93
2018-05-27T09:10:33.175Z,33.87
2018-05-27T09:13:03.784Z,22.50
2018-05-27T09:15:33.454Z,17.77
2018-05-27T09:18:03.387Z,15.03
2018-05-27T09:20:32.813Z,17.67
2018-05-27T09:23:02.465Z,15.63
2018-05-27T09:25:31.881Z,18.53
2018-05-27T09:28:01.616Z,14.30
2018-05-27T09:30:31.409Z,16.80
2018-05-27T09:33:01.408Z,17.30
2018-05-27T09:35:30.773Z,24.17
2018-05-27T09:38:01.612Z,24.73
2018-05-27T09:40:30.968Z,18.60
2018-05-27T09:43:00.920Z,18.95
2018-05-27T09:45:32.666Z,21.50
2018-05-27T09:48:02.347Z,21.10
2018-05-27T09:50:31.720Z,23.07
2018-05-27T09:53:01.500Z,23.37
2018-05-27T09:55:31.704Z,22.70
2018-05-27T09:58:01.613Z,18.57
2018-05-27T10:00:31.607Z,18.90
2018-05-27T10:03:01.528Z,24.63
2018-05-27T10:05:30.822Z,18.97
2018-05-27T10:08:14.719Z,17.47
2018-05-27T10:10:43.950Z,16.63
2018-05-27T10:13:13.424Z,15.35
2018-05-27T10:15:43.974Z,14.53
2018-05-27T10:18:13.835Z,14.25
2018-05-27T10:20:43.094Z,15.43
2018-05-27T10:23:12.642Z,15.45
2018-05-27T10:25:42.652Z,13.67
2018-05-27T10:28:12.457Z,14.23
2018-05-27T10:30:41.874Z,13.17
2018-05-27T10:33:11.694Z,16.10
2018-05-27T10:35:42.448Z,15.80
2018-05-27T10:38:13.511Z,18.70
2018-05-27T10:40:42.996Z,20.30
2018-05-27T10:43:12.785Z,23.73
2018-05-27T10:45:42.422Z,21.00
2018-05-27T10:48:13.478Z,23.53
2018-05-27T10:50:43.854Z,22.90
2018-05-27T10:53:13.577Z,28.33
2018-05-27T10:55:42.802Z,25.20
2018-05-27T10:58:13.027Z,24.93
2018-05-27T11:00:42.747Z,23.57
2018-05-27T11:03:12.433Z,24.10
2018-05-27T11:05:41.991Z,23.40
2018-05-27T11:08:12.420Z,18.13
2018-05-27T11:10:42.422Z,19.87
2018-05-27T11:13:13.514Z,15.87
2018-05-27T11:15:54.276Z,15.97
2018-05-27T11:18:24.429Z,15.57
2018-05-27T11:20:54.801Z,14.03
2018-05-27T11:23:24.420Z,13.83
2018-05-27T11:25:54.019Z,14.00
2018-05-27T11:28:23.814Z,13.47
2018-05-27T11:30:53.440Z,12.83
2018-05-27T11:33:22.865Z,12.83
2018-05-27T11:35:52.429Z,12.83
2018-05-27T11:38:22.808Z,12.50
2018-05-27T11:40:52.447Z,13.27
2018-05-27T11:43:22.723Z,12.43
2018-05-27T11:45:52.386Z,12.80
2018-05-27T11:48:22.844Z,11.47
2018-05-27T11:50:52.662Z,12.37
2018-05-27T11:53:22.425Z,11.37
2018-05-27T11:55:53.352Z,12.17
2018-05-27T11:58:23.769Z,12.33
2018-05-27T12:00:53.450Z,11.90
2018-05-27T12:03:24.634Z,11.27
2018-05-27T12:05:54.488Z,11.83
2018-05-27T12:08:23.935Z,12.20
2018-05-27T12:13:23.681Z,11.13
2018-05-27T12:15:54.480Z,11.60
2018-05-27T12:18:23.960Z,10.47
2018-05-27T12:23:21.939Z,10.20
2018-05-27T12:30:50.443Z,10.20
2018-05-27T12:33:20.801Z,8.90
2018-05-27T12:35:50.438Z,9.77
2018-05-27T12:38:20.404Z,9.87
2018-05-27T12:40:51.436Z,9.67
2018-05-27T12:43:22.346Z,8.20
2018-05-27T12:45:51.852Z,8.57
2018-05-27T12:48:21.595Z,8.10
2018-05-27T12:50:52.428Z,7.73
2018-05-27T12:53:22.736Z,10.47
2018-05-27T12:55:52.448Z,9.80
2018-05-27T12:58:21.841Z,8.50
2018-05-27T13:00:51.524Z,8.07
2018-05-27T13:03:21.432Z,7.53
2018-05-27T13:05:51.873Z,8.93
2018-05-27T13:08:21.708Z,9.87
2018-05-27T13:10:51.469Z,11.40
2018-05-27T13:13:32.822Z,12.20
2018-05-27T13:16:15.769Z,11.47
2018-05-27T13:26:10.978Z,10.77
2018-05-27T13:31:10.380Z,9.23
2018-05-27T13:33:40.845Z,10.40
2018-05-27T13:36:10.397Z,8.83
2018-05-27T13:38:39.876Z,9.17
2018-05-27T13:41:10.576Z,9.63
2018-05-27T13:43:40.594Z,8.97
2018-05-27T13:46:09.952Z,8.00
2018-05-27T13:51:08.627Z,7.77
2018-05-27T13:53:38.965Z,7.90
2018-05-27T13:58:38.824Z,7.87
2018-05-27T14:01:09.430Z,8.57
2018-05-27T14:03:39.795Z,8.00
2018-05-27T14:06:12.943Z,8.10
2018-05-27T14:11:11.893Z,10.60
2018-05-27T14:16:12.061Z,7.63
2018-05-27T14:18:41.876Z,9.60
2018-05-27T14:21:11.564Z,8.10
2018-05-27T14:23:41.426Z,7.90
2018-05-27T14:26:11.994Z,9.07
